sensor_id;sensor_type;location;lat;lon;timestamp;pressure;altitude;pressure_sealevel;temperature;humidity
41222;BME280;26952;42.884;23.918;2023-04-05T00:00:57;95366.47;;;2.80;100.00
41222;BME280;26952;42.884;23.918;2023-04-05T00:03:23;95374.31;;;2.90;100.00
41222;BME280;26952;42.884;23.918;2023-04-05T00:05:49;95367.28;;;2.90;100.00
41222;BME280;26952;42.884;23.918;2023-04-05T00:08:15;95366.59;;;2.88;100.00
41222;BME280;26952;42.884;23.918;2023-04-05T00:10:58;95368.66;;;2.94;100.00
41222;BME280;26952;42.884;23.918;2023-04-05T00:13:23;95379.66;;;2.98;100.00
41222;BME280;26952;42.884;23.918;2023-04-05T00:15:49;95365.22;;;2.84;100.00
41222;BME280;26952;42.884;23.918;2023-04-05T00:18:15;95356.97;;;2.69;100.00
41222;BME280;26952;42.884;23.918;2023-04-05T00:20:49;95363.84;;;2.80;100.00
41222;BME280;26952;42.884;23.918;2023-04-05T00:23:15;95351.22;;;2.75;100.00
41222;BME280;26952;42.884;23.918;2023-04-05T00:25:42;95352.44;;;2.71;100.00
41222;BME280;26952;42.884;23.918;2023-04-05T00:28:08;95372.50;;;2.71;100.00
41222;BME280;26952;42.884;23.918;2023-04-05T00:30:33;95367.56;;;2.68;100.00
41222;BME280;26952;42.884;23.918;2023-04-05T00:32:59;95360.28;;;2.62;100.00
41222;BME280;26952;42.884;23.918;2023-04-05T00:35:27;95344.59;;;2.52;100.00
41222;BME280;26952;42.884;23.918;2023-04-05T00:37:54;95357.25;;;2.66;100.00
41222;BME280;26952;42.884;23.918;2023-04-05T00:40:20;95353.41;;;2.61;100.00
41222;BME280;26952;42.884;23.918;2023-04-05T00:42:46;95355.31;;;2.59;100.00
41222;BME280;26952;42.884;23.918;2023-04-05T00:45:12;95348.44;;;2.58;100.00
41222;BME280;26952;42.884;23.918;2023-04-05T00:47:38;95356.41;;;2.66;100.00
41222;BME280;26952;42.884;23.918;2023-04-05T00:50:05;95350.38;;;2.65;100.00
41222;BME280;26952;42.884;23.918;2023-04-05T00:52:31;95358.22;;;2.65;100.00
41222;BME280;26952;42.884;23.918;2023-04-05T00:54:57;95359.56;;;2.60;100.00
41222;BME280;26952;42.884;23.918;2023-04-05T00:57:24;95357.38;;;2.46;100.00
41222;BME280;26952;42.884;23.918;2023-04-05T00:59:50;95324.22;;;2.37;100.00
41222;BME280;26952;42.884;23.918;2023-04-05T01:02:35;95347.22;;;2.52;100.00
41222;BME280;26952;42.884;23.918;2023-04-05T01:05:29;95361.75;;;2.55;100.00
41222;BME280;26952;42.884;23.918;2023-04-05T01:08:11;95353.25;;;2.62;100.00
41222;BME280;26952;42.884;23.918;2023-04-05T01:10:43;95350.09;;;2.59;100.00
41222;BME280;26952;42.884;23.918;2023-04-05T01:13:10;95352.28;;;2.54;100.00
41222;BME280;26952;42.884;23.918;2023-04-05T01:15:36;95352.56;;;2.51;100.00
41222;BME280;26952;42.884;23.918;2023-04-05T01:18:01;95348.16;;;2.51;100.00
41222;BME280;26952;42.884;23.918;2023-04-05T01:20:30;95356.69;;;2.53;100.00
41222;BME280;26952;42.884;23.918;2023-04-05T01:23:15;95362.19;;;2.50;100.00
41222;BME280;26952;42.884;23.918;2023-04-05T01:26:08;95359.84;;;2.38;100.00
41222;BME280;26952;42.884;23.918;2023-04-05T01:31:31;95356.13;;;2.59;100.00
41222;BME280;26952;42.884;23.918;2023-04-05T01:34:24;95350.38;;;2.65;100.00
41222;BME280;26952;42.884;23.918;2023-04-05T01:36:55;95355.19;;;2.70;100.00
41222;BME280;26952;42.884;23.918;2023-04-05T01:39:23;95345.81;;;2.58;100.00
41222;BME280;26952;42.884;23.918;2023-04-05T01:41:49;95337.31;;;2.56;100.00
41222;BME280;26952;42.884;23.918;2023-04-05T01:44:14;95352.56;;;2.70;100.00
41222;BME280;26952;42.884;23.918;2023-04-05T01:46:40;95346.50;;;2.60;100.00
41222;BME280;26952;42.884;23.918;2023-04-05T01:49:06;95342.41;;;2.76;100.00
41222;BME280;26952;42.884;23.918;2023-04-05T01:51:32;95345.41;;;2.91;100.00
41222;BME280;26952;42.884;23.918;2023-04-05T01:53:57;95339.91;;;2.94;100.00
41222;BME280;26952;42.884;23.918;2023-04-05T01:56:23;95325.47;;;2.90;100.00
41222;BME280;26952;42.884;23.918;2023-04-05T01:58:48;95342.81;;;2.91;100.00
41222;BME280;26952;42.884;23.918;2023-04-05T02:01:14;95345.56;;;2.80;100.00
41222;BME280;26952;42.884;23.918;2023-04-05T02:03:39;95353.41;;;2.80;100.00
41222;BME280;26952;42.884;23.918;2023-04-05T02:06:05;95349.13;;;2.79;100.00
41222;BME280;26952;42.884;23.918;2023-04-05T02:08:30;95342.25;;;2.88;100.00
41222;BME280;26952;42.884;23.918;2023-04-05T02:10:56;95342.66;;;2.83;100.00
41222;BME280;26952;42.884;23.918;2023-04-05T02:13:21;95347.63;;;2.86;100.00
41222;BME280;26952;42.884;23.918;2023-04-05T02:15:48;95348.88;;;2.82;100.00
41222;BME280;26952;42.884;23.918;2023-04-05T02:18:14;95331.13;;;2.76;100.00
41222;BME280;26952;42.884;23.918;2023-04-05T02:20:41;95354.75;;;2.84;100.00
41222;BME280;26952;42.884;23.918;2023-04-05T02:23:06;95353.13;;;2.83;100.00
41222;BME280;26952;42.884;23.918;2023-04-05T02:25:32;95351.06;;;2.87;100.00
41222;BME280;26952;42.884;23.918;2023-04-05T02:27:58;95348.44;;;2.87;100.00
41222;BME280;26952;42.884;23.918;2023-04-05T02:30:23;95343.22;;;2.96;100.00
41222;BME280;26952;42.884;23.918;2023-04-05T02:32:48;95358.31;;;3.12;100.00
41222;BME280;26952;42.884;23.918;2023-04-05T02:35:14;95350.34;;;3.13;100.00
41222;BME280;26952;42.884;23.918;2023-04-05T02:37:41;95338.34;;;3.20;100.00
41222;BME280;26952;42.884;23.918;2023-04-05T02:40:10;95345.91;;;3.23;100.00
41222;BME280;26952;42.884;23.918;2023-04-05T02:42:36;95357.75;;;3.27;100.00
41222;BME280;26952;42.884;23.918;2023-04-05T02:45:02;95357.47;;;3.30;100.00
41222;BME280;26952;42.884;23.918;2023-04-05T02:47:27;95354.97;;;3.38;100.00
41222;BME280;26952;42.884;23.918;2023-04-05T02:49:53;95350.00;;;3.45;100.00
41222;BME280;26952;42.884;23.918;2023-04-05T02:52:18;95358.09;;;3.51;100.00
41222;BME280;26952;42.884;23.918;2023-04-05T02:54:43;95358.38;;;3.58;100.00
41222;BME280;26952;42.884;23.918;2023-04-05T02:57:12;95343.75;;;3.55;100.00
41222;BME280;26952;42.884;23.918;2023-04-05T02:59:38;95330.03;;;3.53;100.00
41222;BME280;26952;42.884;23.918;2023-04-05T03:02:08;95349.38;;;3.60;100.00
41222;BME280;26952;42.884;23.918;2023-04-05T03:04:33;95344.75;;;3.54;100.00
41222;BME280;26952;42.884;23.918;2023-04-05T03:07:03;95338.13;;;3.60;100.00
41222;BME280;26952;42.884;23.918;2023-04-05T03:09:29;95343.75;;;3.55;100.00
41222;BME280;26952;42.884;23.918;2023-04-05T03:12:00;95318.34;;;3.38;100.00
41222;BME280;26952;42.884;23.918;2023-04-05T03:14:30;95328.94;;;3.46;100.00
41222;BME280;26952;42.884;23.918;2023-04-05T03:16:56;95354.91;;;3.57;100.00
41222;BME280;26952;42.884;23.918;2023-04-05T03:19:23;95346.91;;;3.59;100.00
41222;BME280;26952;42.884;23.918;2023-04-05T03:21:48;95343.06;;;3.63;100.00
41222;BME280;26952;42.884;23.918;2023-04-05T03:24:14;95342.47;;;3.69;100.00
41222;BME280;26952;42.884;23.918;2023-04-05T03:26:47;95341.94;;;3.65;100.00
41222;BME280;26952;42.884;23.918;2023-04-05T03:29:13;95343.22;;;3.61;100.00
41222;BME280;26952;42.884;23.918;2023-04-05T03:31:38;95345.25;;;3.67;100.00
41222;BME280;26952;42.884;23.918;2023-04-05T03:34:04;95326.59;;;3.43;100.00
41222;BME280;26952;42.884;23.918;2023-04-05T03:36:29;95335.66;;;3.49;100.00
41222;BME280;26952;42.884;23.918;2023-04-05T03:39:09;95342.53;;;3.59;100.00
41222;BME280;26952;42.884;23.918;2023-04-05T03:41:36;95331.91;;;3.61;100.00
41222;BME280;26952;42.884;23.918;2023-04-05T03:44:01;95348.00;;;3.66;100.00
41222;BME280;26952;42.884;23.918;2023-04-05T03:46:28;95352.13;;;3.68;100.00
41222;BME280;26952;42.884;23.918;2023-04-05T03:48:53;95343.59;;;3.66;100.00
41222;BME280;26952;42.884;23.918;2023-04-05T03:51:18;95341.00;;;3.66;100.00
41222;BME280;26952;42.884;23.918;2023-04-05T03:53:44;95329.34;;;3.51;100.00
41222;BME280;26952;42.884;23.918;2023-04-05T03:56:10;95357.63;;;3.65;100.00
41222;BME280;26952;42.884;23.918;2023-04-05T03:58:36;95347.75;;;3.59;100.00
41222;BME280;26952;42.884;23.918;2023-04-05T04:01:02;95346.47;;;3.63;100.00
41222;BME280;26952;42.884;23.918;2023-04-05T04:03:27;95358.31;;;3.67;100.00
41222;BME280;26952;42.884;23.918;2023-04-05T04:05:55;95358.22;;;3.59;100.00
41222;BME280;26952;42.884;23.918;2023-04-05T04:08:21;95370.06;;;3.54;100.00
41222;BME280;26952;42.884;23.918;2023-04-05T04:10:46;95332.66;;;3.34;100.00
41222;BME280;26952;42.884;23.918;2023-04-05T04:13:12;95358.09;;;3.51;100.00
41222;BME280;26952;42.884;23.918;2023-04-05T04:15:37;95369.78;;;3.57;100.00
41222;BME280;26952;42.884;23.918;2023-04-05T04:18:03;95362.06;;;3.55;100.00
41222;BME280;26952;42.884;23.918;2023-04-05T04:20:28;95368.00;;;3.57;100.00
41222;BME280;26952;42.884;23.918;2023-04-05T04:22:55;95368.66;;;3.69;100.00
41222;BME280;26952;42.884;23.918;2023-04-05T04:25:20;95367.56;;;3.62;100.00
41222;BME280;26952;42.884;23.918;2023-04-05T04:27:46;95355.50;;;3.51;100.00
41222;BME280;26952;42.884;23.918;2023-04-05T04:30:13;95360.72;;;3.51;100.00
41222;BME280;26952;42.884;23.918;2023-04-05T04:32:40;95357.13;;;3.52;100.00
41222;BME280;26952;42.884;23.918;2023-04-05T04:35:26;95349.53;;;3.59;100.00
41222;BME280;26952;42.884;23.918;2023-04-05T04:37:55;95370.25;;;3.79;100.00
41222;BME280;26952;42.884;23.918;2023-04-05T04:40:34;95373.56;;;3.81;100.00
41222;BME280;26952;42.884;23.918;2023-04-05T04:43:14;95364.38;;;3.77;100.00
41222;BME280;26952;42.884;23.918;2023-04-05T04:45:46;95371.34;;;3.86;100.00
41222;BME280;26952;42.884;23.918;2023-04-05T04:48:13;95364.16;;;3.88;100.00
41222;BME280;26952;42.884;23.918;2023-04-05T04:50:43;95377.38;;;3.96;100.00
41222;BME280;26952;42.884;23.918;2023-04-05T04:53:10;95379.78;;;4.07;100.00
41222;BME280;26952;42.884;23.918;2023-04-05T04:55:37;95370.69;;;4.11;100.00
41222;BME280;26952;42.884;23.918;2023-04-05T04:58:02;95372.88;;;4.16;100.00
41222;BME280;26952;42.884;23.918;2023-04-05T05:00:35;95368.03;;;4.21;100.00
41222;BME280;26952;42.884;23.918;2023-04-05T05:03:02;95365.97;;;4.15;100.00
41222;BME280;26952;42.884;23.918;2023-04-05T05:05:27;95376.69;;;3.94;100.00
41222;BME280;26952;42.884;23.918;2023-04-05T05:07:53;95374.50;;;3.90;100.00
41222;BME280;26952;42.884;23.918;2023-04-05T05:10:18;95383.75;;;3.84;100.00
41222;BME280;26952;42.884;23.918;2023-04-05T05:12:44;95381.81;;;3.86;100.00
41222;BME280;26952;42.884;23.918;2023-04-05T05:15:10;95386.78;;;3.80;100.00
41222;BME280;26952;42.884;23.918;2023-04-05T05:17:36;95376.06;;;3.73;100.00
41222;BME280;26952;42.884;23.918;2023-04-05T05:20:02;95384.59;;;3.75;100.00
41222;BME280;26952;42.884;23.918;2023-04-05T05:22:34;95382.78;;;3.85;100.00
41222;BME280;26952;42.884;23.918;2023-04-05T05:25:00;95389.63;;;3.96;100.00
41222;BME280;26952;42.884;23.918;2023-04-05T05:27:25;95377.06;;;3.99;100.00
41222;BME280;26952;42.884;23.918;2023-04-05T05:29:52;95377.66;;;3.93;100.00
41222;BME280;26952;42.884;23.918;2023-04-05T05:32:17;95371.91;;;3.80;100.00
41222;BME280;26952;42.884;23.918;2023-04-05T05:34:43;95371.63;;;3.83;100.00
41222;BME280;26952;42.884;23.918;2023-04-05T05:37:12;95389.66;;;3.86;100.00
41222;BME280;26952;42.884;23.918;2023-04-05T05:39:37;95388.97;;;3.84;100.00
41222;BME280;26952;42.884;23.918;2023-04-05T05:42:03;95382.22;;;3.91;100.00
41222;BME280;26952;42.884;23.918;2023-04-05T05:44:29;95359.09;;;3.87;100.00
41222;BME280;26952;42.884;23.918;2023-04-05T05:46:55;95370.75;;;4.02;100.00
41222;BME280;26952;42.884;23.918;2023-04-05T05:49:21;95380.88;;;4.14;100.00
41222;BME280;26952;42.884;23.918;2023-04-05T05:51:48;95381.16;;;4.11;100.00
41222;BME280;26952;42.884;23.918;2023-04-05T05:54:13;95390.81;;;4.11;100.00
41222;BME280;26952;42.884;23.918;2023-04-05T05:56:38;95375.97;;;4.02;100.00
41222;BME280;26952;42.884;23.918;2023-04-05T05:59:04;95375.34;;;4.17;100.00
41222;BME280;26952;42.884;23.918;2023-04-05T06:01:29;95389.91;;;4.30;100.00
41222;BME280;26952;42.884;23.918;2023-04-05T06:03:55;95378.53;;;4.39;100.00
41222;BME280;26952;42.884;23.918;2023-04-05T06:06:22;95375.75;;;4.40;100.00
41222;BME280;26952;42.884;23.918;2023-04-05T06:08:47;95386.47;;;4.47;100.00
41222;BME280;26952;42.884;23.918;2023-04-05T06:11:19;95389.41;;;4.44;100.00
41222;BME280;26952;42.884;23.918;2023-04-05T06:13:49;95378.53;;;4.39;100.00
41222;BME280;26952;42.884;23.918;2023-04-05T06:16:22;95380.56;;;4.45;100.00
41222;BME280;26952;42.884;23.918;2023-04-05T06:18:48;95388.72;;;4.42;100.00
41222;BME280;26952;42.884;23.918;2023-04-05T06:21:14;95385.88;;;4.53;100.00
41222;BME280;26952;42.884;23.918;2023-04-05T06:23:40;95375.06;;;4.65;100.00
41222;BME280;26952;42.884;23.918;2023-04-05T06:26:07;95372.06;;;4.60;100.00
41222;BME280;26952;42.884;23.918;2023-04-05T06:28:32;95385.19;;;4.78;100.00
41222;BME280;26952;42.884;23.918;2023-04-05T06:30:58;95390.19;;;5.06;100.00
41222;BME280;26952;42.884;23.918;2023-04-05T06:33:24;95393.84;;;5.31;100.00
41222;BME280;26952;42.884;23.918;2023-04-05T06:35:49;95387.19;;;5.36;100.00
41222;BME280;26952;42.884;23.918;2023-04-05T06:38:15;95401.78;;;5.39;100.00
41222;BME280;26952;42.884;23.918;2023-04-05T06:40:40;95399.00;;;5.40;100.00
41222;BME280;26952;42.884;23.918;2023-04-05T06:43:06;95397.44;;;5.47;100.00
41222;BME280;26952;42.884;23.918;2023-04-05T06:45:31;95397.59;;;5.46;100.00
41222;BME280;26952;42.884;23.918;2023-04-05T06:47:57;95399.66;;;5.60;100.00
41222;BME280;26952;42.884;23.918;2023-04-05T06:50:22;95398.34;;;5.21;100.00
41222;BME280;26952;42.884;23.918;2023-04-05T06:52:48;95405.41;;;5.03;100.00
41222;BME280;26952;42.884;23.918;2023-04-05T06:55:13;95418.97;;;5.16;100.00
41222;BME280;26952;42.884;23.918;2023-04-05T06:57:38;95414.91;;;5.21;100.00
41222;BME280;26952;42.884;23.918;2023-04-05T07:00:04;95421.94;;;5.38;100.00
41222;BME280;26952;42.884;23.918;2023-04-05T07:02:37;95418.16;;;5.33;100.00
41222;BME280;26952;42.884;23.918;2023-04-05T07:05:03;95411.22;;;5.32;100.00
41222;BME280;26952;42.884;23.918;2023-04-05T07:07:30;95425.47;;;5.47;100.00
41222;BME280;26952;42.884;23.918;2023-04-05T07:09:56;95432.50;;;5.64;100.00
41222;BME280;26952;42.884;23.918;2023-04-05T07:12:21;95429.06;;;5.46;100.00
41222;BME280;26952;42.884;23.918;2023-04-05T07:14:46;95429.50;;;5.59;100.00
41222;BME280;26952;42.884;23.918;2023-04-05T07:17:12;95428.09;;;5.90;100.00
41222;BME280;26952;42.884;23.918;2023-04-05T07:19:37;95416.34;;;5.77;100.00
41222;BME280;26952;42.884;23.918;2023-04-05T07:22:02;95430.88;;;5.89;100.00
41222;BME280;26952;42.884;23.918;2023-04-05T07:24:28;95434.44;;;5.62;100.00
41222;BME280;26952;42.884;23.918;2023-04-05T07:26:53;95422.78;;;5.82;100.00
41222;BME280;26952;42.884;23.918;2023-04-05T07:29:19;95431.38;;;6.18;100.00
41222;BME280;26952;42.884;23.918;2023-04-05T07:31:44;95445.19;;;5.94;100.00
41222;BME280;26952;42.884;23.918;2023-04-05T07:34:10;95442.88;;;5.91;100.00
41222;BME280;26952;42.884;23.918;2023-04-05T08:02:17;95465.31;;;6.70;97.90
41222;BME280;26952;42.884;23.918;2023-04-05T08:04:42;95463.09;;;6.91;95.67
41222;BME280;26952;42.884;23.918;2023-04-05T08:07:08;95448.81;;;6.52;97.67
41222;BME280;26952;42.884;23.918;2023-04-05T08:09:34;95423.41;;;6.27;99.78
41222;BME280;26952;42.884;23.918;2023-04-05T08:12:00;95395.94;;;6.22;99.92
41222;BME280;26952;42.884;23.918;2023-04-05T08:14:27;95459.53;;;6.25;98.43
41222;BME280;26952;42.884;23.918;2023-04-05T08:16:52;95447.78;;;6.45;100.00
41222;BME280;26952;42.884;23.918;2023-04-05T08:19:18;95441.53;;;6.38;97.14
41222;BME280;26952;42.884;23.918;2023-04-05T08:21:43;95454.97;;;6.35;93.51
41222;BME280;26952;42.884;23.918;2023-04-05T08:24:08;95457.44;;;6.11;94.75
41222;BME280;26952;42.884;23.918;2023-04-05T08:26:34;95443.81;;;6.41;96.45
41222;BME280;26952;42.884;23.918;2023-04-05T08:28:59;95450.38;;;6.37;92.84
41222;BME280;26952;42.884;23.918;2023-04-05T08:31:25;95405.84;;;6.02;94.46
41222;BME280;26952;42.884;23.918;2023-04-05T08:33:50;95465.38;;;6.19;91.75
41222;BME280;26952;42.884;23.918;2023-04-05T08:36:15;95464.56;;;5.93;91.61
41222;BME280;26952;42.884;23.918;2023-04-05T08:38:41;95479.72;;;5.99;88.10
41222;BME280;26952;42.884;23.918;2023-04-05T08:41:29;95477.56;;;6.20;91.84
41222;BME280;26952;42.884;23.918;2023-04-05T08:44:01;95473.72;;;5.89;93.49
41222;BME280;26952;42.884;23.918;2023-04-05T08:46:29;95415.13;;;5.45;92.37
41222;BME280;26952;42.884;23.918;2023-04-05T08:48:56;95468.38;;;5.99;93.13
41222;BME280;26952;42.884;23.918;2023-04-05T08:51:23;95483.22;;;6.33;95.70
41222;BME280;26952;42.884;23.918;2023-04-05T08:53:49;95461.94;;;6.52;94.82
41222;BME280;26952;42.884;23.918;2023-04-05T08:56:26;95463.44;;;6.55;91.22
41222;BME280;26952;42.884;23.918;2023-04-05T09:01:26;95476.41;;;6.90;93.69
41222;BME280;26952;42.884;23.918;2023-04-05T09:03:55;95469.97;;;6.92;87.61
41222;BME280;26952;42.884;23.918;2023-04-05T09:06:21;95450.88;;;6.82;88.75
41222;BME280;26952;42.884;23.918;2023-04-05T09:08:47;95458.28;;;6.79;87.46
41222;BME280;26952;42.884;23.918;2023-04-05T09:11:14;95468.75;;;7.21;89.79
41222;BME280;26952;42.884;23.918;2023-04-05T09:13:40;95467.47;;;7.41;86.73
41222;BME280;26952;42.884;23.918;2023-04-05T09:16:06;95490.72;;;7.69;84.77
41222;BME280;26952;42.884;23.918;2023-04-05T09:18:32;95485.59;;;7.92;87.81
41222;BME280;26952;42.884;23.918;2023-04-05T09:21:04;95484.59;;;7.61;86.14
41222;BME280;26952;42.884;23.918;2023-04-05T09:23:30;95471.72;;;7.26;85.78
41222;BME280;26952;42.884;23.918;2023-04-05T09:25:55;95427.63;;;7.12;90.05
41222;BME280;26952;42.884;23.918;2023-04-05T09:28:21;95475.56;;;7.71;88.84
41222;BME280;26952;42.884;23.918;2023-04-05T09:30:46;95451.13;;;6.97;83.01
41222;BME280;26952;42.884;23.918;2023-04-05T09:33:17;95496.72;;;7.22;87.27
41222;BME280;26952;42.884;23.918;2023-04-05T09:35:44;95493.16;;;7.39;82.89
41222;BME280;26952;42.884;23.918;2023-04-05T09:38:09;95348.94;;;6.60;85.27
41222;BME280;26952;42.884;23.918;2023-04-05T09:40:43;95489.88;;;7.77;86.66
41222;BME280;26952;42.884;23.918;2023-04-05T09:43:10;95483.94;;;7.59;80.75
41222;BME280;26952;42.884;23.918;2023-04-05T09:45:39;95491.66;;;7.36;81.95
41222;BME280;26952;42.884;23.918;2023-04-05T09:48:06;95484.13;;;6.50;83.33
41222;BME280;26952;42.884;23.918;2023-04-05T09:50:32;95473.63;;;6.24;87.23
41222;BME280;26952;42.884;23.918;2023-04-05T09:53:11;95475.00;;;6.36;88.91
41222;BME280;26952;42.884;23.918;2023-04-05T09:55:41;95473.13;;;6.54;86.19
41222;BME280;26952;42.884;23.918;2023-04-05T09:58:18;95471.94;;;6.15;89.11
41222;BME280;26952;42.884;23.918;2023-04-05T10:00:52;95486.34;;;6.70;93.43
41222;BME280;26952;42.884;23.918;2023-04-05T10:03:19;95484.00;;;7.01;90.38
41222;BME280;26952;42.884;23.918;2023-04-05T10:05:45;95472.19;;;7.05;89.41
41222;BME280;26952;42.884;23.918;2023-04-05T10:08:12;95477.09;;;7.00;85.73
41222;BME280;26952;42.884;23.918;2023-04-05T10:10:45;95491.69;;;6.94;85.09
41222;BME280;26952;42.884;23.918;2023-04-05T10:13:11;95481.94;;;6.71;88.03
41222;BME280;26952;42.884;23.918;2023-04-05T10:15:37;95473.44;;;6.85;87.41
41222;BME280;26952;42.884;23.918;2023-04-05T10:18:09;95475.00;;;6.70;89.82
41222;BME280;26952;42.884;23.918;2023-04-05T10:20:38;95466.94;;;7.13;89.07
41222;BME280;26952;42.884;23.918;2023-04-05T10:23:21;95483.94;;;7.67;84.81
41222;BME280;26952;42.884;23.918;2023-04-05T10:28:34;95482.16;;;6.85;81.58
41222;BME280;26952;42.884;23.918;2023-04-05T10:33:46;95479.91;;;6.98;87.12
41222;BME280;26952;42.884;23.918;2023-04-05T10:41:09;95476.53;;;6.80;82.25
41222;BME280;26952;42.884;23.918;2023-04-05T10:43:36;95488.75;;;6.97;86.58
41222;BME280;26952;42.884;23.918;2023-04-05T10:46:05;95482.91;;;7.20;85.16
41222;BME280;26952;42.884;23.918;2023-04-05T10:51:00;95457.91;;;7.24;78.73
41222;BME280;26952;42.884;23.918;2023-04-05T10:53:26;95444.78;;;6.74;81.84
41222;BME280;26952;42.884;23.918;2023-04-05T10:55:52;95462.44;;;6.97;82.32
41222;BME280;26952;42.884;23.918;2023-04-05T10:58:20;95467.41;;;7.08;82.60
41222;BME280;26952;42.884;23.918;2023-04-05T11:00:46;95474.38;;;7.26;83.12
41222;BME280;26952;42.884;23.918;2023-04-05T11:03:44;95482.31;;;7.66;85.92
41222;BME280;26952;42.884;23.918;2023-04-05T11:06:33;95485.44;;;7.53;80.59
41222;BME280;26952;42.884;23.918;2023-04-05T11:09:13;95484.50;;;7.04;81.01
41222;BME280;26952;42.884;23.918;2023-04-05T11:11:44;95466.44;;;7.18;85.11
41222;BME280;26952;42.884;23.918;2023-04-05T11:14:23;95480.16;;;7.61;83.60
41222;BME280;26952;42.884;23.918;2023-04-05T11:16:54;95462.22;;;7.81;79.05
41222;BME280;26952;42.884;23.918;2023-04-05T11:22:07;95462.88;;;7.59;76.28
41222;BME280;26952;42.884;23.918;2023-04-05T11:27:39;95489.88;;;8.09;74.71
41222;BME280;26952;42.884;23.918;2023-04-05T11:30:47;95485.06;;;8.20;72.35
41222;BME280;26952;42.884;23.918;2023-04-05T11:34:14;95482.28;;;8.22;73.31
41222;BME280;26952;42.884;23.918;2023-04-05T11:44:13;95475.38;;;7.41;76.68
41222;BME280;26952;42.884;23.918;2023-04-05T11:46:45;95482.78;;;7.37;76.87
41222;BME280;26952;42.884;23.918;2023-04-05T11:49:11;95495.47;;;7.66;79.10
41222;BME280;26952;42.884;23.918;2023-04-05T11:51:39;95457.91;;;7.40;76.17
41222;BME280;26952;42.884;23.918;2023-04-05T11:54:06;95478.81;;;7.41;73.84
41222;BME280;26952;42.884;23.918;2023-04-05T11:56:32;95483.53;;;7.14;74.49
41222;BME280;26952;42.884;23.918;2023-04-05T11:58:57;95486.00;;;7.15;75.84
41222;BME280;26952;42.884;23.918;2023-04-05T12:01:23;95474.69;;;7.15;77.42
41222;BME280;26952;42.884;23.918;2023-04-05T12:03:53;95482.59;;;7.23;79.96
41222;BME280;26952;42.884;23.918;2023-04-05T12:06:20;95490.28;;;7.08;83.11
41222;BME280;26952;42.884;23.918;2023-04-05T12:08:46;95481.44;;;6.75;86.33
41222;BME280;26952;42.884;23.918;2023-04-05T12:11:33;95486.22;;;6.80;88.92
41222;BME280;26952;42.884;23.918;2023-04-05T12:14:00;95461.78;;;6.20;91.01
41222;BME280;26952;42.884;23.918;2023-04-05T12:16:26;95488.72;;;5.79;94.33
41222;BME280;26952;42.884;23.918;2023-04-05T12:18:53;95472.97;;;5.79;98.08
41222;BME280;26952;42.884;23.918;2023-04-05T12:21:19;95477.66;;;5.85;96.53
41222;BME280;26952;42.884;23.918;2023-04-05T12:23:45;95451.84;;;5.63;96.53
41222;BME280;26952;42.884;23.918;2023-04-05T12:26:11;95485.88;;;5.90;97.62
41222;BME280;26952;42.884;23.918;2023-04-05T12:31:14;95474.25;;;6.18;95.06
41222;BME280;26952;42.884;23.918;2023-04-05T12:33:40;95478.31;;;6.38;93.80
41222;BME280;26952;42.884;23.918;2023-04-05T12:36:07;95496.53;;;6.65;92.61
41222;BME280;26952;42.884;23.918;2023-04-05T12:38:36;95488.28;;;6.60;93.16
41222;BME280;26952;42.884;23.918;2023-04-05T12:41:03;95480.63;;;6.41;89.46
41222;BME280;26952;42.884;23.918;2023-04-05T12:43:41;95419.66;;;6.04;92.96
41222;BME280;26952;42.884;23.918;2023-04-05T12:46:11;95482.66;;;6.55;94.46
41222;BME280;26952;42.884;23.918;2023-04-05T12:48:40;95482.50;;;6.23;95.56
41222;BME280;26952;42.884;23.918;2023-04-05T12:51:13;95490.28;;;6.07;97.84
41222;BME280;26952;42.884;23.918;2023-04-05T12:53:44;95468.53;;;5.80;98.42
41222;BME280;26952;42.884;23.918;2023-04-05T12:56:11;95486.84;;;5.89;95.97
41222;BME280;26952;42.884;23.918;2023-04-05T12:58:36;95485.72;;;5.74;99.40
41222;BME280;26952;42.884;23.918;2023-04-05T13:01:03;95477.78;;;5.66;98.14
41222;BME280;26952;42.884;23.918;2023-04-05T13:03:28;95494.88;;;5.70;98.71
41222;BME280;26952;42.884;23.918;2023-04-05T13:05:54;95474.06;;;5.51;100.00
41222;BME280;26952;42.884;23.918;2023-04-05T13:08:19;95480.88;;;5.61;100.00
41222;BME280;26952;42.884;23.918;2023-04-05T13:10:45;95486.94;;;5.62;100.00
41222;BME280;26952;42.884;23.918;2023-04-05T13:13:15;95430.13;;;5.35;100.00
41222;BME280;26952;42.884;23.918;2023-04-05T13:15:41;95481.25;;;5.84;100.00
41222;BME280;26952;42.884;23.918;2023-04-05T13:18:06;95498.63;;;5.67;100.00
41222;BME280;26952;42.884;23.918;2023-04-05T13:20:32;95484.78;;;5.57;100.00
41222;BME280;26952;42.884;23.918;2023-04-05T13:22:57;95497.75;;;5.59;100.00
41222;BME280;26952;42.884;23.918;2023-04-05T13:25:23;95472.09;;;5.53;100.00
41222;BME280;26952;42.884;23.918;2023-04-05T13:27:48;95486.94;;;5.62;100.00
41222;BME280;26952;42.884;23.918;2023-04-05T13:30:14;95498.13;;;5.64;100.00
41222;BME280;26952;42.884;23.918;2023-04-05T13:32:40;95483.56;;;5.52;100.00
41222;BME280;26952;42.884;23.918;2023-04-05T13:35:06;95491.91;;;5.30;100.00
41222;BME280;26952;42.884;23.918;2023-04-05T13:37:31;95435.53;;;4.99;100.00
41222;BME280;26952;42.884;23.918;2023-04-05T13:39:57;95489.81;;;5.51;100.00
41222;BME280;26952;42.884;23.918;2023-04-05T13:42:23;95493.38;;;5.67;100.00
41222;BME280;26952;42.884;23.918;2023-04-05T13:44:48;95487.97;;;5.69;100.00
41222;BME280;26952;42.884;23.918;2023-04-05T13:47:14;95484.28;;;5.80;100.00
41222;BME280;26952;42.884;23.918;2023-04-05T13:49:41;95483.72;;;5.68;100.00
41222;BME280;26952;42.884;23.918;2023-04-05T13:52:06;95493.47;;;5.58;100.00
41222;BME280;26952;42.884;23.918;2023-04-05T13:54:31;95438.38;;;5.23;100.00
41222;BME280;26952;42.884;23.918;2023-04-05T13:56:57;95499.38;;;5.60;100.00